Malaysia Virtual Airlines Airport Information Service

Sultan Abdul Halim

ICAO: WMKA Country: Malaysia
Latitude: 6.19423 Longitude: 100.402
Latest Arrival : AK6012 (WMKK-WMKA) Latest Departure : AK6019 (WMKA-WMKK)


WX CaptureLIVE
Data provided by noaa.gov | Fetched at 07:20:59

METAR : WMKA 160600Z 30006KT 250V340 9999 SCT020 31/26 Q1010

TAF : WMKA 160500Z 1606/1706 26006KT 9999 FEW020 TEMPO 1608/1612 6000 -TSRA FEW010 FEW017CB BECMG 1610/1612 VRB03KT FEW030


Runway Data for WMKA
Data provided by openaviationdata.com

Runway ID Mag Var Hdg Length Elevation Surface ILS Freq ILS Id ILS Slope
4 0 43° 6454 ft 15 ft Tarmac -- -- --
22 0 223° 6454 ft 15 ft Tarmac -- -- --

Sultan Abdul Halim, Malaysia
Use only for reference purposes



Not for navigational purposes.